createdAt,value
2017-07-26T00:02:44.196Z,995.23
2017-07-26T00:03:44.137Z,995.23
2017-07-26T00:04:44.073Z,995.24
2017-07-26T00:05:44.013Z,995.21
2017-07-26T00:06:43.950Z,995.21
2017-07-26T00:07:44.237Z,995.2
2017-07-26T00:08:43.827Z,995.24
2017-07-26T00:09:43.765Z,995.18
2017-07-26T00:10:43.702Z,995.21
2017-07-26T00:11:43.641Z,995.2
2017-07-26T00:12:43.579Z,995.17
2017-07-26T00:13:43.517Z,995.18
2017-07-26T00:14:43.457Z,995.2
2017-07-26T00:15:43.393Z,995.18
2017-07-26T00:16:43.331Z,995.19
2017-07-26T00:17:43.270Z,995.19
2017-07-26T00:18:43.208Z,995.2
2017-07-26T00:19:43.147Z,995.16
2017-07-26T00:20:43.085Z,995.16
2017-07-26T00:21:43.024Z,995.15
2017-07-26T00:22:42.961Z,995.14
2017-07-26T00:23:42.899Z,995.13
2017-07-26T00:24:42.838Z,995.14
2017-07-26T00:25:42.777Z,995.13
2017-07-26T00:26:42.714Z,995.14
2017-07-26T00:27:42.653Z,995.12
2017-07-26T00:28:42.592Z,995.08
2017-07-26T00:29:42.529Z,995.12
2017-07-26T00:30:42.472Z,995.13
2017-07-26T00:31:42.406Z,995.15
2017-07-26T00:32:42.345Z,995.15
2017-07-26T00:33:42.284Z,995.15
2017-07-26T00:34:42.220Z,995.19
2017-07-26T00:35:42.159Z,995.19
2017-07-26T00:36:42.096Z,995.17
2017-07-26T00:37:42.034Z,995.18
2017-07-26T00:38:42.124Z,995.13
2017-07-26T00:39:41.912Z,995.11
2017-07-26T00:40:41.850Z,995.07
2017-07-26T00:41:41.793Z,995.03
2017-07-26T00:42:41.726Z,995.03
2017-07-26T00:43:41.665Z,995.01
2017-07-26T00:44:41.604Z,995
2017-07-26T00:45:41.541Z,995.01
2017-07-26T00:46:41.480Z,995
2017-07-26T00:47:41.417Z,994.98
2017-07-26T00:48:41.356Z,995.02
2017-07-26T00:49:41.294Z,995.05
2017-07-26T00:50:41.234Z,995.06
2017-07-26T00:51:41.171Z,995.05
2017-07-26T00:52:41.108Z,995.1
2017-07-26T00:53:41.047Z,995.06
2017-07-26T00:54:40.986Z,995.07
2017-07-26T00:55:40.929Z,995.12
2017-07-26T00:56:40.862Z,995.1
2017-07-26T00:57:40.801Z,995.12
2017-07-26T00:58:40.738Z,995.08
2017-07-26T00:59:40.675Z,995.1
2017-07-26T01:00:40.614Z,995.06
2017-07-26T01:01:40.553Z,995.07
2017-07-26T01:02:40.491Z,995.03
2017-07-26T01:03:40.429Z,995
2017-07-26T01:04:40.371Z,994.99
2017-07-26T01:05:40.455Z,995
2017-07-26T01:06:40.243Z,995
2017-07-26T01:07:40.182Z,994.98
2017-07-26T01:08:40.121Z,994.97
2017-07-26T01:09:40.058Z,994.98
2017-07-26T01:10:40.151Z,994.95
2017-07-26T01:11:39.935Z,994.93
2017-07-26T01:12:39.874Z,994.94
2017-07-26T01:13:39.811Z,994.91
2017-07-26T01:14:39.751Z,994.92
2017-07-26T01:15:39.789Z,994.89
2017-07-26T01:16:39.627Z,994.85
2017-07-26T01:17:39.564Z,994.84
2017-07-26T01:18:39.503Z,994.85
2017-07-26T01:19:39.441Z,994.85
2017-07-26T01:20:39.528Z,994.83
2017-07-26T01:21:39.317Z,994.86
2017-07-26T01:22:39.255Z,994.85
2017-07-26T01:23:39.194Z,994.91
2017-07-26T01:24:39.131Z,994.93
2017-07-26T01:25:39.221Z,994.93
2017-07-26T01:26:39.007Z,994.93
2017-07-26T01:27:38.947Z,994.94
2017-07-26T01:28:38.906Z,994.99
2017-07-26T01:29:38.824Z,994.98
2017-07-26T01:30:38.915Z,994.99
2017-07-26T01:31:38.717Z,994.95
2017-07-26T01:32:38.637Z,994.95
2017-07-26T01:33:38.576Z,994.97
2017-07-26T01:34:38.515Z,994.97
2017-07-26T01:35:38.703Z,994.95
2017-07-26T01:36:38.391Z,994.97
2017-07-26T01:37:38.330Z,994.94
2017-07-26T01:38:38.267Z,994.97
2017-07-26T01:39:38.206Z,994.94
2017-07-26T01:40:38.445Z,994.96
2017-07-26T01:41:38.087Z,994.97
2017-07-26T01:42:38.018Z,994.95
2017-07-26T01:43:37.958Z,995
2017-07-26T01:44:37.897Z,995
2017-07-26T01:45:37.936Z,995.02
2017-07-26T01:46:37.778Z,995.01
2017-07-26T01:47:37.710Z,995
2017-07-26T01:48:37.649Z,995.05
2017-07-26T01:49:37.587Z,995.03
2017-07-26T01:50:37.525Z,995
2017-07-26T01:51:37.466Z,995.01
2017-07-26T01:52:37.403Z,994.98
2017-07-26T01:53:37.340Z,994.97
2017-07-26T01:54:37.279Z,994.98
2017-07-26T01:55:37.218Z,994.95
2017-07-26T01:56:37.157Z,994.92
2017-07-26T01:57:37.094Z,994.97
2017-07-26T01:58:37.032Z,994.96
2017-07-26T01:59:36.971Z,995.02
2017-07-26T02:00:36.908Z,995.02
2017-07-26T02:01:36.846Z,995.01
2017-07-26T02:02:36.786Z,995.09
2017-07-26T02:03:36.728Z,995.09
2017-07-26T02:04:36.661Z,995.13
2017-07-26T02:05:36.599Z,995.09
2017-07-26T02:06:36.537Z,995.1
2017-07-26T02:07:36.477Z,995.1
2017-07-26T02:08:36.412Z,995.08
2017-07-26T02:09:36.352Z,995.01
2017-07-26T02:10:36.292Z,994.92
2017-07-26T02:11:37.428Z,994.9
2017-07-26T02:12:36.166Z,994.83
2017-07-26T02:13:36.111Z,994.8
2017-07-26T02:14:36.043Z,994.87
2017-07-26T02:15:35.980Z,994.87
2017-07-26T02:16:35.921Z,994.92
2017-07-26T02:17:35.858Z,994.94
2017-07-26T02:18:35.796Z,994.91
2017-07-26T02:19:35.735Z,994.9
2017-07-26T02:20:35.672Z,994.92
2017-07-26T02:21:35.610Z,994.86
2017-07-26T02:22:35.548Z,994.89
2017-07-26T02:23:35.487Z,994.87
2017-07-26T02:24:35.424Z,994.91
2017-07-26T02:25:35.365Z,994.9
2017-07-26T02:26:35.300Z,994.9
2017-07-26T02:27:35.242Z,994.88
2017-07-26T02:28:35.179Z,994.85
2017-07-26T02:29:35.115Z,994.83
2017-07-26T02:30:35.060Z,994.86
2017-07-26T02:31:34.998Z,994.89
2017-07-26T02:32:34.930Z,994.89
2017-07-26T02:33:34.867Z,994.86
2017-07-26T02:34:34.807Z,994.89
2017-07-26T02:35:34.745Z,994.89
2017-07-26T02:36:34.682Z,994.9
2017-07-26T02:37:34.621Z,994.88
2017-07-26T02:38:34.559Z,994.9
2017-07-26T02:39:34.497Z,994.89
2017-07-26T02:40:34.436Z,994.92
2017-07-26T02:41:34.373Z,994.94
2017-07-26T02:42:34.312Z,994.99
2017-07-26T02:43:34.250Z,994.95
2017-07-26T02:44:34.186Z,994.99
2017-07-26T02:45:34.130Z,995.01
2017-07-26T02:46:34.064Z,995.03
2017-07-26T02:47:34.002Z,995.04
2017-07-26T02:48:33.941Z,995.05
2017-07-26T02:49:33.877Z,995.09
2017-07-26T02:50:33.821Z,995.11
2017-07-26T02:51:33.755Z,995.1
2017-07-26T02:52:33.694Z,995.1
2017-07-26T02:53:33.632Z,995.1
2017-07-26T02:54:33.570Z,995.12
2017-07-26T02:55:33.507Z,995.11
2017-07-26T02:56:33.445Z,995.11
2017-07-26T02:57:33.383Z,995.09
2017-07-26T02:58:33.321Z,995.11
2017-07-26T02:59:33.260Z,995.08
2017-07-26T03:00:33.198Z,995.05
2017-07-26T03:01:33.137Z,995.05
2017-07-26T03:02:33.075Z,995.03
2017-07-26T03:03:33.014Z,995.03
2017-07-26T03:04:32.953Z,995.02
2017-07-26T03:05:32.889Z,995.05
2017-07-26T03:06:32.828Z,995.07
2017-07-26T03:07:32.768Z,995.04
2017-07-26T03:08:32.704Z,995.05
2017-07-26T03:09:32.642Z,995.02
2017-07-26T03:10:32.581Z,994.97
2017-07-26T03:11:32.520Z,994.98
2017-07-26T03:12:32.458Z,995.01
2017-07-26T03:13:32.395Z,995
2017-07-26T03:14:32.332Z,994.99
2017-07-26T03:15:32.272Z,994.97
2017-07-26T03:16:32.210Z,995.06
2017-07-26T03:17:32.147Z,995.04
2017-07-26T03:18:32.086Z,994.95
2017-07-26T03:19:32.025Z,994.99
2017-07-26T03:20:31.962Z,994.99
2017-07-26T03:21:31.900Z,994.97
2017-07-26T03:22:31.839Z,995
2017-07-26T03:23:31.777Z,994.99
2017-07-26T03:24:31.715Z,994.99
2017-07-26T03:25:31.653Z,994.98
2017-07-26T03:26:31.591Z,995.01
2017-07-26T03:27:31.529Z,994.97
2017-07-26T03:28:31.466Z,995
2017-07-26T03:29:31.405Z,994.95
2017-07-26T03:30:31.345Z,994.93
2017-07-26T03:31:31.282Z,994.96
2017-07-26T03:32:31.221Z,994.91
2017-07-26T03:33:31.158Z,994.89
2017-07-26T03:34:31.096Z,994.88
2017-07-26T03:35:31.035Z,994.91
2017-07-26T03:36:30.973Z,994.88
2017-07-26T03:37:30.911Z,994.84
2017-07-26T03:38:30.849Z,994.82
2017-07-26T03:39:30.788Z,994.78
2017-07-26T03:40:30.725Z,994.75
2017-07-26T03:41:30.665Z,994.75
2017-07-26T03:42:30.602Z,994.78
2017-07-26T03:43:30.539Z,994.73
2017-07-26T03:44:30.478Z,994.72
2017-07-26T03:45:30.415Z,994.73
2017-07-26T03:46:30.354Z,994.73
2017-07-26T03:47:30.292Z,994.7
2017-07-26T03:48:30.229Z,994.73
2017-07-26T03:49:30.168Z,994.66
2017-07-26T03:50:30.106Z,994.68
2017-07-26T03:51:30.044Z,994.71
2017-07-26T03:52:29.982Z,994.71
2017-07-26T03:53:29.921Z,994.74
2017-07-26T03:54:29.860Z,994.73
2017-07-26T03:55:29.805Z,994.73
2017-07-26T03:56:29.734Z,994.78
2017-07-26T03:57:29.672Z,994.75
2017-07-26T03:58:29.612Z,994.75
2017-07-26T03:59:29.549Z,994.73
2017-07-26T04:00:29.486Z,994.73
2017-07-26T04:01:29.427Z,994.74
2017-07-26T04:02:29.363Z,994.69
2017-07-26T04:03:29.302Z,994.7
2017-07-26T04:04:29.240Z,994.68
2017-07-26T04:05:29.178Z,994.7
2017-07-26T04:06:29.117Z,994.69
2017-07-26T04:07:29.055Z,994.67
2017-07-26T04:08:28.991Z,994.67
2017-07-26T04:09:28.930Z,994.71
2017-07-26T04:10:28.869Z,994.67
2017-07-26T04:11:28.807Z,994.69
2017-07-26T04:12:28.744Z,994.68
2017-07-26T04:13:28.684Z,994.7
2017-07-26T04:14:28.620Z,994.74
2017-07-26T04:15:28.560Z,994.67
2017-07-26T04:16:28.496Z,994.67
2017-07-26T04:17:28.435Z,994.7
2017-07-26T04:18:28.374Z,994.7
2017-07-26T04:19:28.311Z,994.71
2017-07-26T04:20:28.249Z,994.71
2017-07-26T04:21:28.187Z,994.71
2017-07-26T04:22:28.127Z,994.72
2017-07-26T04:23:28.063Z,994.69
2017-07-26T04:24:28.002Z,994.75
2017-07-26T04:25:27.940Z,994.72
2017-07-26T04:26:27.878Z,994.71
2017-07-26T04:27:27.815Z,994.71
2017-07-26T04:28:27.754Z,994.71
2017-07-26T04:29:27.691Z,994.73
2017-07-26T04:30:27.630Z,994.7
2017-07-26T04:31:27.571Z,994.75
2017-07-26T04:32:27.506Z,994.73
2017-07-26T04:33:27.445Z,994.76
2017-07-26T04:34:27.382Z,994.74
2017-07-26T04:35:27.321Z,994.77
2017-07-26T04:36:27.260Z,994.78
2017-07-26T04:37:27.197Z,994.79
2017-07-26T04:38:27.135Z,994.82
2017-07-26T04:39:27.076Z,994.79
2017-07-26T04:40:27.011Z,994.8
2017-07-26T04:41:26.950Z,994.83
2017-07-26T04:42:26.888Z,994.86
2017-07-26T04:43:26.828Z,994.89
2017-07-26T04:44:26.763Z,994.87
2017-07-26T04:45:26.704Z,994.87
2017-07-26T04:46:26.642Z,994.79
2017-07-26T04:47:26.578Z,994.8
2017-07-26T04:48:26.516Z,994.82
2017-07-26T04:49:26.658Z,994.79
2017-07-26T04:50:26.393Z,994.86
2017-07-26T04:51:26.331Z,994.89
2017-07-26T04:52:26.268Z,994.86
2017-07-26T04:53:26.206Z,994.87
2017-07-26T04:54:26.145Z,994.84
2017-07-26T04:55:26.084Z,994.89
2017-07-26T04:56:26.024Z,994.85
2017-07-26T04:57:25.964Z,994.83
2017-07-26T04:58:25.898Z,994.83
2017-07-26T04:59:25.834Z,994.85
2017-07-26T05:00:25.774Z,994.97
2017-07-26T05:01:25.713Z,994.93
2017-07-26T05:02:25.649Z,994.96
2017-07-26T05:03:25.586Z,994.94
2017-07-26T05:04:25.527Z,994.95
2017-07-26T05:05:25.464Z,994.95
2017-07-26T05:06:25.403Z,994.93
2017-07-26T05:07:25.341Z,994.96
2017-07-26T05:08:25.278Z,994.93
2017-07-26T05:09:25.218Z,994.98
2017-07-26T05:10:25.156Z,994.94
2017-07-26T05:11:25.094Z,994.97
2017-07-26T05:12:25.030Z,994.92
2017-07-26T05:13:25.171Z,994.92
2017-07-26T05:14:24.907Z,994.89
2017-07-26T05:15:24.844Z,994.89
2017-07-26T05:16:24.784Z,994.91
2017-07-26T05:17:24.722Z,994.87
2017-07-26T05:18:24.659Z,994.86
2017-07-26T05:19:24.598Z,994.83
2017-07-26T05:20:24.538Z,994.76
2017-07-26T05:21:24.473Z,994.71
2017-07-26T05:22:24.411Z,994.74
2017-07-26T05:23:24.350Z,994.71
2017-07-26T05:24:24.288Z,994.73
2017-07-26T05:25:24.225Z,994.71
2017-07-26T05:26:24.164Z,994.74
2017-07-26T05:27:24.100Z,994.7
2017-07-26T05:28:24.042Z,994.71
2017-07-26T05:29:23.978Z,994.67
2017-07-26T05:30:23.916Z,994.71
2017-07-26T05:31:23.856Z,994.72
2017-07-26T05:32:23.794Z,994.81
2017-07-26T05:33:23.731Z,994.89
2017-07-26T05:34:23.669Z,994.85
2017-07-26T05:35:23.607Z,994.88
2017-07-26T05:36:23.543Z,994.86
2017-07-26T05:37:23.483Z,994.86
2017-07-26T05:38:23.420Z,994.85
2017-07-26T05:39:23.359Z,994.87
2017-07-26T05:40:23.308Z,994.86
2017-07-26T05:41:23.236Z,994.87
2017-07-26T05:42:23.173Z,994.86
2017-07-26T05:43:23.110Z,994.86
2017-07-26T05:44:23.049Z,994.8
2017-07-26T05:45:22.988Z,994.85
2017-07-26T05:46:22.926Z,994.83
2017-07-26T05:47:22.865Z,994.82
2017-07-26T05:48:22.802Z,994.85
2017-07-26T05:49:22.740Z,994.86
2017-07-26T05:50:22.678Z,994.81
2017-07-26T05:51:22.616Z,994.8
2017-07-26T05:52:22.555Z,994.8
2017-07-26T05:53:22.492Z,994.79
2017-07-26T05:54:22.430Z,994.74
2017-07-26T05:55:22.368Z,994.78
2017-07-26T05:56:22.306Z,994.72
2017-07-26T05:57:22.243Z,994.76
2017-07-26T05:58:22.181Z,994.76
2017-07-26T05:59:22.118Z,994.78
2017-07-26T06:00:22.057Z,994.74
2017-07-26T06:01:21.999Z,994.75
2017-07-26T06:02:21.935Z,994.72
2017-07-26T06:03:21.872Z,994.73
2017-07-26T06:04:21.811Z,994.73
2017-07-26T06:05:21.747Z,994.72
2017-07-26T06:06:21.688Z,994.73
2017-07-26T06:07:21.622Z,994.75
2017-07-26T06:08:21.564Z,994.74
2017-07-26T06:09:21.500Z,994.7
2017-07-26T06:10:21.439Z,994.72
2017-07-26T06:11:21.376Z,994.74
2017-07-26T06:12:21.315Z,994.66
2017-07-26T06:13:21.255Z,994.71
2017-07-26T06:14:21.194Z,994.72
2017-07-26T06:15:21.130Z,994.7
2017-07-26T06:16:21.072Z,994.7
2017-07-26T06:17:21.005Z,994.74
2017-07-26T06:18:20.944Z,994.71
2017-07-26T06:19:20.883Z,994.71
2017-07-26T06:20:20.824Z,994.7
2017-07-26T06:21:20.758Z,994.66
2017-07-26T06:22:20.696Z,994.67
2017-07-26T06:23:20.636Z,994.66
2017-07-26T06:24:20.573Z,994.66
2017-07-26T06:25:20.511Z,994.63
2017-07-26T06:26:20.449Z,994.6
2017-07-26T06:27:20.386Z,994.58
2017-07-26T06:28:20.323Z,994.56
2017-07-26T06:29:20.265Z,994.54
2017-07-26T06:30:20.201Z,994.55
2017-07-26T06:31:20.138Z,994.57
2017-07-26T06:32:20.080Z,994.54
2017-07-26T06:33:20.016Z,994.53
2017-07-26T06:34:19.953Z,994.48
2017-07-26T06:35:19.891Z,994.5
2017-07-26T06:36:19.829Z,994.46
2017-07-26T06:37:19.768Z,994.45
2017-07-26T06:38:19.705Z,994.45
2017-07-26T06:39:19.644Z,994.47
2017-07-26T06:40:19.581Z,994.45
2017-07-26T06:41:19.526Z,994.45
2017-07-26T06:42:19.462Z,994.4
2017-07-26T06:43:19.399Z,994.42
2017-07-26T06:44:19.338Z,994.39
2017-07-26T06:45:19.271Z,994.45
2017-07-26T06:46:19.209Z,994.44
2017-07-26T06:47:19.147Z,994.39
2017-07-26T06:48:19.085Z,994.41
2017-07-26T06:49:19.024Z,994.43
2017-07-26T06:50:18.961Z,994.41
2017-07-26T06:51:18.901Z,994.45
2017-07-26T06:52:18.838Z,994.49
2017-07-26T06:53:18.776Z,994.47
2017-07-26T06:54:18.714Z,994.47
2017-07-26T06:55:18.652Z,994.49
2017-07-26T06:56:18.590Z,994.45
2017-07-26T06:57:18.527Z,994.52
2017-07-26T06:58:18.466Z,994.49
2017-07-26T06:59:18.406Z,994.52
2017-07-26T07:00:18.342Z,994.54
2017-07-26T07:01:18.288Z,994.52
2017-07-26T07:02:18.216Z,994.51
2017-07-26T07:03:18.157Z,994.52
2017-07-26T07:04:18.093Z,994.5
2017-07-26T07:05:18.031Z,994.48
2017-07-26T07:06:17.970Z,994.48
2017-07-26T07:07:17.908Z,994.49
2017-07-26T07:08:17.847Z,994.5
2017-07-26T07:09:17.784Z,994.53
2017-07-26T07:10:17.727Z,994.52
2017-07-26T07:11:17.660Z,994.62
2017-07-26T07:12:17.599Z,994.6
2017-07-26T07:13:17.539Z,994.59
2017-07-26T07:14:17.475Z,994.61
2017-07-26T07:15:17.412Z,994.57
2017-07-26T07:16:17.352Z,994.55
2017-07-26T07:17:17.290Z,994.59
2017-07-26T07:18:17.228Z,994.56
2017-07-26T07:19:17.165Z,994.6
2017-07-26T07:20:17.104Z,994.56
2017-07-26T07:21:17.046Z,994.5
2017-07-26T07:22:16.979Z,994.58
2017-07-26T07:23:16.930Z,994.55
2017-07-26T07:24:16.934Z,994.57
2017-07-26T07:25:16.795Z,994.6
2017-07-26T07:26:16.731Z,994.51
2017-07-26T07:27:16.672Z,994.58
2017-07-26T07:28:16.607Z,994.59
2017-07-26T07:29:16.545Z,994.53
2017-07-26T07:30:16.486Z,994.58
2017-07-26T07:31:16.421Z,994.58
2017-07-26T07:32:16.359Z,994.58
2017-07-26T07:33:16.297Z,994.59
2017-07-26T07:34:16.234Z,994.56
2017-07-26T07:35:16.173Z,994.57
2017-07-26T07:36:16.119Z,994.55
2017-07-26T07:37:16.049Z,994.57
2017-07-26T07:38:15.987Z,994.58
2017-07-26T07:39:15.926Z,994.56
2017-07-26T07:40:15.864Z,994.54
2017-07-26T07:41:15.800Z,994.49
2017-07-26T07:42:15.745Z,994.63
2017-07-26T07:43:15.676Z,994.54
2017-07-26T07:44:15.616Z,994.57
2017-07-26T07:45:15.552Z,994.55
2017-07-26T07:46:15.489Z,994.55
2017-07-26T07:47:15.428Z,994.56
2017-07-26T07:48:15.366Z,994.56
2017-07-26T07:49:15.302Z,994.59
2017-07-26T07:50:15.241Z,994.59
2017-07-26T07:51:15.179Z,994.54
2017-07-26T07:52:15.117Z,994.58
2017-07-26T07:53:15.055Z,994.55
2017-07-26T07:54:14.992Z,994.58
2017-07-26T07:55:14.929Z,994.57
2017-07-26T07:56:14.869Z,994.66
2017-07-26T07:57:14.805Z,994.66
2017-07-26T07:58:14.744Z,994.67
2017-07-26T07:59:14.680Z,994.67
2017-07-26T08:00:14.618Z,994.64
2017-07-26T08:01:14.556Z,994.65
2017-07-26T08:02:14.498Z,994.67
2017-07-26T08:03:14.431Z,994.73
2017-07-26T08:04:14.368Z,994.73
2017-07-26T08:05:14.308Z,994.77
2017-07-26T08:06:14.244Z,994.76
2017-07-26T08:07:14.183Z,994.77
2017-07-26T08:08:14.120Z,994.8
2017-07-26T08:09:14.056Z,994.79
2017-07-26T08:10:13.995Z,994.86
2017-07-26T08:11:13.931Z,994.84
2017-07-26T08:12:13.870Z,994.84
2017-07-26T08:13:13.807Z,994.8
2017-07-26T08:14:13.746Z,994.84
2017-07-26T08:15:13.685Z,994.86
2017-07-26T08:16:13.621Z,994.82
2017-07-26T08:17:13.559Z,994.84
2017-07-26T08:18:13.497Z,994.88
2017-07-26T08:19:13.436Z,994.81
2017-07-26T08:20:13.371Z,994.82
2017-07-26T08:21:13.310Z,994.83
2017-07-26T08:22:13.249Z,994.78
2017-07-26T08:23:13.190Z,994.83
2017-07-26T08:24:13.128Z,994.84
2017-07-26T08:25:13.067Z,994.82
2017-07-26T08:26:13.007Z,994.8
2017-07-26T08:27:12.940Z,994.82
2017-07-26T08:28:12.878Z,994.84
2017-07-26T08:29:12.816Z,994.84
2017-07-26T08:30:12.752Z,994.85
2017-07-26T08:31:12.693Z,994.84
2017-07-26T08:32:12.629Z,994.85
2017-07-26T08:33:12.568Z,994.87
2017-07-26T08:34:12.509Z,994.84
2017-07-26T08:35:12.442Z,994.88
2017-07-26T08:36:12.383Z,994.88
2017-07-26T08:37:12.322Z,994.89
2017-07-26T08:38:12.258Z,994.87
2017-07-26T08:39:12.196Z,994.87
2017-07-26T08:40:12.141Z,994.95
2017-07-26T08:41:12.074Z,994.9
2017-07-26T08:42:12.012Z,994.93
2017-07-26T08:43:11.951Z,994.91
2017-07-26T08:44:11.888Z,994.94
2017-07-26T08:45:11.836Z,994.96
2017-07-26T08:46:11.770Z,994.98
2017-07-26T08:47:11.704Z,994.98
2017-07-26T08:48:11.642Z,994.92
2017-07-26T08:49:11.584Z,994.91
2017-07-26T08:50:11.519Z,994.96
2017-07-26T08:51:11.457Z,994.91
2017-07-26T08:52:11.402Z,994.93
2017-07-26T08:53:11.350Z,994.92
2017-07-26T08:54:11.272Z,994.94
2017-07-26T08:55:11.211Z,994.92
2017-07-26T08:56:11.150Z,994.92
2017-07-26T08:57:11.088Z,994.88
2017-07-26T08:58:11.027Z,994.9
2017-07-26T08:59:10.964Z,994.97
2017-07-26T09:00:10.903Z,994.94
2017-07-26T09:01:10.843Z,994.93
2017-07-26T09:02:10.782Z,994.99
2017-07-26T09:03:10.719Z,995.01
2017-07-26T09:04:10.658Z,994.95
2017-07-26T09:05:10.601Z,995.03
2017-07-26T09:06:10.534Z,995.02
2017-07-26T09:07:10.475Z,995.01
2017-07-26T09:08:10.410Z,995
2017-07-26T09:09:10.349Z,995.03
2017-07-26T09:10:10.289Z,995.03
2017-07-26T09:11:10.227Z,995.03
2017-07-26T09:12:10.165Z,995.05
2017-07-26T09:13:10.105Z,995.07
2017-07-26T09:14:10.085Z,995.08
2017-07-26T09:15:09.982Z,995.02
2017-07-26T09:16:09.919Z,995.06
2017-07-26T09:17:09.858Z,995.08
2017-07-26T09:18:09.857Z,995.06
2017-07-26T09:19:09.735Z,995.04
2017-07-26T09:20:09.672Z,995.07
2017-07-26T09:21:09.613Z,995.09
2017-07-26T09:22:09.552Z,995.09
2017-07-26T09:23:09.491Z,995.06
2017-07-26T09:24:09.429Z,995.07
2017-07-26T09:25:09.368Z,995.12
2017-07-26T09:26:09.307Z,995.1
2017-07-26T09:27:09.246Z,995.14
2017-07-26T09:28:09.184Z,995.21
2017-07-26T09:29:09.123Z,995.15
2017-07-26T09:30:09.363Z,995.17
2017-07-26T09:31:09.000Z,995.2
2017-07-26T09:32:08.938Z,995.16
2017-07-26T09:33:08.877Z,995.23
2017-07-26T09:34:08.814Z,995.18
2017-07-26T09:35:09.004Z,995.21
2017-07-26T09:36:08.693Z,995.25
2017-07-26T09:37:08.630Z,995.28
2017-07-26T09:38:08.570Z,995.23
2017-07-26T09:39:08.518Z,995.29
2017-07-26T09:40:08.449Z,995.24
2017-07-26T09:41:08.394Z,995.22
2017-07-26T09:42:08.328Z,995.26
2017-07-26T09:43:08.274Z,995.24
2017-07-26T09:44:08.200Z,995.27
2017-07-26T09:45:08.143Z,995.24
2017-07-26T09:46:08.079Z,995.28
2017-07-26T09:47:08.018Z,995.24
2017-07-26T09:48:07.956Z,995.28
2017-07-26T09:49:07.896Z,995.25
2017-07-26T09:50:07.834Z,995.31
2017-07-26T09:51:07.772Z,995.29
2017-07-26T09:52:07.709Z,995.25
2017-07-26T09:53:07.651Z,995.27
2017-07-26T09:54:07.588Z,995.25
2017-07-26T09:55:07.528Z,995.28
2017-07-26T09:56:07.465Z,995.35
2017-07-26T09:57:07.404Z,995.33
2017-07-26T09:58:07.343Z,995.34
2017-07-26T09:59:07.282Z,995.33
2017-07-26T10:00:07.219Z,995.38
2017-07-26T10:01:07.167Z,995.4
2017-07-26T10:02:07.097Z,995.36
2017-07-26T10:03:07.034Z,995.4
2017-07-26T10:04:06.972Z,995.36
2017-07-26T10:05:06.912Z,995.4
2017-07-26T10:06:06.849Z,995.4
2017-07-26T10:07:06.793Z,995.41
2017-07-26T10:08:06.728Z,995.39
2017-07-26T10:09:06.667Z,995.47
2017-07-26T10:10:06.604Z,995.47
2017-07-26T10:11:06.542Z,995.44
2017-07-26T10:12:06.481Z,995.46
2017-07-26T10:13:06.421Z,995.44
2017-07-26T10:14:06.357Z,995.47
2017-07-26T10:15:06.298Z,995.51
2017-07-26T10:16:06.243Z,995.52
2017-07-26T10:17:06.174Z,995.44
2017-07-26T10:18:06.114Z,995.5
2017-07-26T10:19:06.054Z,995.51
2017-07-26T10:20:05.990Z,995.52
2017-07-26T10:21:05.928Z,995.52
2017-07-26T10:22:05.868Z,995.57
2017-07-26T10:23:05.807Z,995.51
2017-07-26T10:24:05.745Z,995.53
2017-07-26T10:25:05.681Z,995.54
2017-07-26T10:26:05.621Z,995.54
2017-07-26T10:27:05.559Z,995.53
2017-07-26T10:28:05.499Z,995.57
2017-07-26T10:29:05.436Z,995.56
2017-07-26T10:30:05.375Z,995.58
2017-07-26T10:31:05.316Z,995.55
2017-07-26T10:32:05.257Z,995.57
2017-07-26T10:33:05.191Z,995.64
2017-07-26T10:34:05.130Z,995.61
2017-07-26T10:35:05.069Z,995.57
2017-07-26T10:36:05.006Z,995.69
2017-07-26T10:37:04.946Z,995.69
2017-07-26T10:38:04.889Z,995.65
2017-07-26T10:39:04.821Z,995.67
2017-07-26T10:40:04.760Z,995.66
2017-07-26T10:41:04.699Z,995.72
2017-07-26T10:42:04.641Z,995.71
2017-07-26T10:43:04.577Z,995.74
2017-07-26T10:44:04.530Z,995.72
2017-07-26T10:45:04.457Z,995.75
2017-07-26T10:46:04.392Z,995.74
2017-07-26T10:47:04.330Z,995.76
2017-07-26T10:48:04.272Z,995.8
2017-07-26T10:49:04.209Z,995.82
2017-07-26T10:50:04.146Z,995.78
2017-07-26T10:51:04.083Z,995.81
2017-07-26T10:52:04.023Z,995.84
2017-07-26T10:53:03.963Z,995.85
2017-07-26T10:54:03.898Z,995.86
2017-07-26T10:55:03.839Z,995.9
2017-07-26T10:56:03.776Z,995.92
2017-07-26T10:57:03.714Z,995.94
2017-07-26T10:58:03.654Z,995.95
2017-07-26T10:59:03.592Z,995.93
2017-07-26T11:00:03.531Z,995.97
2017-07-26T11:01:03.469Z,996
2017-07-26T11:02:03.415Z,996.1
2017-07-26T11:03:03.347Z,996.08
2017-07-26T11:04:03.286Z,996.11
2017-07-26T11:05:03.225Z,996.06
2017-07-26T11:06:03.165Z,996.06
2017-07-26T11:07:03.104Z,996.11
2017-07-26T11:08:03.042Z,996.11
2017-07-26T11:09:02.981Z,996.11
2017-07-26T11:10:02.921Z,996.14
2017-07-26T11:11:02.858Z,996.19
2017-07-26T11:12:02.798Z,996.19
2017-07-26T11:13:02.737Z,996.22
2017-07-26T11:14:02.673Z,996.21
2017-07-26T11:15:02.614Z,996.21
2017-07-26T11:16:02.553Z,996.24
2017-07-26T11:17:02.492Z,996.23
2017-07-26T11:18:02.430Z,996.29
2017-07-26T11:19:02.368Z,996.26
2017-07-26T11:20:02.369Z,996.28
2017-07-26T11:21:02.245Z,996.29
2017-07-26T11:22:02.201Z,996.28
2017-07-26T11:23:02.121Z,996.3
2017-07-26T11:24:02.060Z,996.28
2017-07-26T11:25:02.000Z,996.34
2017-07-26T11:26:01.939Z,996.31
2017-07-26T11:27:01.878Z,996.32
2017-07-26T11:28:01.821Z,996.31
2017-07-26T11:29:01.753Z,996.36
2017-07-26T11:30:01.691Z,996.34
2017-07-26T11:31:01.630Z,996.4
2017-07-26T11:32:01.569Z,996.37
2017-07-26T11:33:01.507Z,996.36
2017-07-26T11:34:01.445Z,996.34
2017-07-26T11:35:01.383Z,996.37
2017-07-26T11:36:01.321Z,996.4
2017-07-26T11:37:01.260Z,996.42
2017-07-26T11:38:01.197Z,996.43
2017-07-26T11:39:01.137Z,996.41
2017-07-26T11:40:01.075Z,996.43
2017-07-26T11:41:01.012Z,996.44
2017-07-26T11:42:00.952Z,996.45
2017-07-26T11:43:00.895Z,996.47
2017-07-26T11:44:00.829Z,996.43
2017-07-26T11:45:00.767Z,996.46
2017-07-26T11:46:00.705Z,996.46
2017-07-26T11:47:00.644Z,996.47
2017-07-26T11:48:00.583Z,996.49
2017-07-26T11:49:00.522Z,996.51
2017-07-26T11:50:00.459Z,996.53
2017-07-26T11:51:00.398Z,996.52
2017-07-26T11:52:00.336Z,996.55
2017-07-26T11:53:00.274Z,996.58
2017-07-26T11:54:00.212Z,996.54
2017-07-26T11:55:00.152Z,996.53
2017-07-26T11:56:00.090Z,996.51
2017-07-26T11:57:00.028Z,996.51
2017-07-26T11:57:59.967Z,996.55
2017-07-26T11:58:59.906Z,996.58
2017-07-26T11:59:59.843Z,996.57
2017-07-26T12:00:59.783Z,996.62
2017-07-26T12:01:59.720Z,996.65
2017-07-26T12:02:59.660Z,996.67
2017-07-26T12:03:59.596Z,996.68
2017-07-26T12:04:59.542Z,996.75
2017-07-26T12:05:59.474Z,996.74
2017-07-26T12:06:59.410Z,996.75
2017-07-26T12:07:59.350Z,996.79
2017-07-26T12:08:59.289Z,996.76
2017-07-26T12:09:59.228Z,996.81
2017-07-26T12:10:59.165Z,996.76
2017-07-26T12:11:59.105Z,996.79
2017-07-26T12:12:59.042Z,996.81
2017-07-26T12:13:58.979Z,996.84
2017-07-26T12:14:58.919Z,996.84
2017-07-26T12:15:58.858Z,996.86
2017-07-26T12:16:58.796Z,996.87
2017-07-26T12:17:58.736Z,996.84
2017-07-26T12:18:58.672Z,996.87
2017-07-26T12:19:58.611Z,996.86
2017-07-26T12:20:58.550Z,996.94
2017-07-26T12:21:58.487Z,996.94
2017-07-26T12:22:58.425Z,996.98
2017-07-26T12:23:58.368Z,997
2017-07-26T12:24:58.302Z,996.99
2017-07-26T12:25:58.241Z,996.99
2017-07-26T12:26:58.179Z,997.07
2017-07-26T12:27:58.122Z,997.04
2017-07-26T12:28:58.056Z,997.06
2017-07-26T12:29:57.995Z,997.08
2017-07-26T12:30:57.934Z,997.08
2017-07-26T12:31:57.873Z,997.14
2017-07-26T12:32:57.811Z,997.14